Time;durP1;ratioP1;P1;durP2;ratioP2;P2;SDS_P1;SDS_P2;PMS_P1;PMS_P2;Temp;Humidity;BMP_temperature;BMP_pressure;BME280_temperature;BME280_humidity;BME280_pressure;Samples;Min_cycle;Max_cycle;Signal;HPM_P1;HPM_P2
2024/01/01 00:00:34;;;;;;;6.90;3.30;;;;;;;;;;5069412;28;20078;-81
2024/01/01 00:02:59;;;;;;;3.20;2.63;;;;;;;;;;5068086;28;20493;-80
2024/01/01 00:05:24;;;;;;;3.60;2.00;;;;;;;;;;5070583;28;20051;-80
2024/01/01 00:07:51;;;;;;;2.50;1.92;;;;;;;;;;5071448;28;20024;-81
2024/01/01 00:10:18;;;;;;;7.88;4.97;;;;;;;;;;5072894;28;20031;-80
2024/01/01 00:12:43;;;;;;;8.13;4.47;;;;;;;;;;5071378;28;20082;-81
2024/01/01 00:15:09;;;;;;;1.08;1.08;;;;;;;;;;5070645;28;20028;-80
2024/01/01 00:17:34;;;;;;;7.53;3.90;;;;;;;;;;5071725;28;20530;-80
2024/01/01 00:20:00;;;;;;;3.90;2.22;;;;;;;;;;5070635;28;20036;-80
2024/01/01 00:22:25;;;;;;;3.50;2.50;;;;;;;;;;5052628;28;20060;-79
2024/01/01 00:24:51;;;;;;;3.40;2.25;;;;;;;;;;5070260;28;20060;-80
2024/01/01 00:27:16;;;;;;;0.98;0.90;;;;;;;;;;5069150;28;20468;-80
2024/01/01 00:29:42;;;;;;;2.40;1.77;;;;;;;;;;5053933;28;20025;-81
2024/01/01 00:32:10;;;;;;;3.15;1.77;;;;;;;;;;5069105;28;20435;-81
2024/01/01 00:34:36;;;;;;;5.22;3.35;;;;;;;;;;5055798;28;20356;-81
2024/01/01 00:37:02;;;;;;;3.38;2.95;;;;;;;;;;5073362;28;20036;-81
2024/01/01 00:39:28;;;;;;;5.32;2.60;;;;;;;;;;5071670;28;20037;-82
2024/01/01 00:41:53;;;;;;;8.52;3.67;;;;;;;;;;5070080;28;20032;-81
2024/01/01 00:44:22;;;;;;;5.95;5.35;;;;;;;;;;5068982;28;20732;-82
2024/01/01 00:46:50;;;;;;;5.88;3.60;;;;;;;;;;5069090;28;20025;-81
2024/01/01 00:49:15;;;;;;;2.67;2.38;;;;;;;;;;5066889;28;20417;-82
2024/01/01 00:51:43;;;;;;;7.05;3.72;;;;;;;;;;5071082;28;20456;-81
2024/01/01 00:54:12;;;;;;;10.68;2.28;;;;;;;;;;5071712;28;20066;-81
2024/01/01 00:56:38;;;;;;;7.50;3.33;;;;;;;;;;5069750;28;20029;-80
2024/01/01 00:59:03;;;;;;;2.10;1.80;;;;;;;;;;5072100;28;20031;-81
2024/01/01 01:01:29;;;;;;;1.73;1.25;;;;;;;;;;5071104;28;20023;-79
2024/01/01 01:03:54;;;;;;;3.20;2.08;;;;;;;;;;5070599;28;20047;-80
2024/01/01 01:06:20;;;;;;;8.10;2.72;;;;;;;;;;5069435;28;20055;-80
2024/01/01 01:08:46;;;;;;;1.80;1.65;;;;;;;;;;5053772;28;20036;-79
2024/01/01 01:11:11;;;;;;;1.75;1.65;;;;;;;;;;5069858;28;20035;-79
2024/01/01 01:13:37;;;;;;;0.65;0.65;;;;;;;;;;5068553;28;20039;-79
2024/01/01 01:16:02;;;;;;;2.53;1.88;;;;;;;;;;5068845;28;20052;-80
2024/01/01 01:18:28;;;;;;;3.40;1.45;;;;;;;;;;5068567;28;20115;-81
2024/01/01 01:20:53;;;;;;;1.40;1.30;;;;;;;;;;5072319;28;20029;-81
2024/01/01 01:23:19;;;;;;;1.83;1.25;;;;;;;;;;5069403;28;20043;-81
2024/01/01 01:25:44;;;;;;;1.50;1.15;;;;;;;;;;5069182;28;20028;-80
2024/01/01 01:28:10;;;;;;;3.72;2.60;;;;;;;;;;5052912;28;20384;-79
2024/01/01 01:30:35;;;;;;;1.33;1.23;;;;;;;;;;5070941;28;20033;-79
2024/01/01 01:33:01;;;;;;;0.95;0.85;;;;;;;;;;5071538;28;20031;-82
2024/01/01 01:35:26;;;;;;;1.35;0.75;;;;;;;;;;5068778;28;21186;-80
2024/01/01 01:37:52;;;;;;;1.20;1.15;;;;;;;;;;5068252;28;20024;-80
2024/01/01 01:40:20;;;;;;;4.18;1.70;;;;;;;;;;5070600;28;20032;-80
2024/01/01 01:42:46;;;;;;;2.03;1.85;;;;;;;;;;5072937;28;20036;-80
2024/01/01 01:45:13;;;;;;;0.70;0.70;;;;;;;;;;5075193;28;20040;-79
2024/01/01 01:47:39;;;;;;;2.10;1.77;;;;;;;;;;5072651;28;20039;-79
2024/01/01 01:50:06;;;;;;;2.53;2.33;;;;;;;;;;5074757;28;20473;-81
2024/01/01 01:52:38;;;;;;;3.30;2.35;;;;;;;;;;5074850;28;20032;-80
2024/01/01 01:55:04;;;;;;;2.72;1.60;;;;;;;;;;5055560;28;20036;-79
2024/01/01 01:57:30;;;;;;;3.22;2.08;;;;;;;;;;5074266;28;20064;-79
2024/01/01 01:59:57;;;;;;;2.08;1.65;;;;;;;;;;5075241;28;20100;-80
2024/01/01 02:02:24;;;;;;;2.63;1.67;;;;;;;;;;5056469;28;20089;-79
2024/01/01 02:04:50;;;;;;;8.68;2.50;;;;;;;;;;5072126;28;20062;-80
2024/01/01 02:07:16;;;;;;;1.00;1.00;;;;;;;;;;5072813;28;20357;-80
2024/01/01 02:09:41;;;;;;;2.90;2.08;;;;;;;;;;5073188;28;20089;-80
2024/01/01 02:12:08;;;;;;;9.15;2.67;;;;;;;;;;5072681;28;20456;-80
2024/01/01 02:14:34;;;;;;;4.00;3.17;;;;;;;;;;5072259;28;20024;-80
2024/01/01 02:16:59;;;;;;;4.85;2.67;;;;;;;;;;5057015;28;20040;-81
2024/01/01 02:19:26;;;;;;;5.72;4.55;;;;;;;;;;5071816;28;20027;-81
2024/01/01 02:21:58;;;;;;;2.78;2.47;;;;;;;;;;5074815;28;20025;-81
2024/01/01 02:24:26;;;;;;;4.10;3.00;;;;;;;;;;5051546;28;20443;-81
2024/01/01 02:26:52;;;;;;;2.00;1.88;;;;;;;;;;5071942;28;20709;-81
2024/01/01 02:29:17;;;;;;;7.10;2.83;;;;;;;;;;5071216;28;20028;-81
2024/01/01 02:31:45;;;;;;;2.45;1.70;;;;;;;;;;5055438;28;20412;-79
2024/01/01 02:34:10;;;;;;;4.63;4.20;;;;;;;;;;5076346;28;20024;-82
2024/01/01 02:36:41;;;;;;;8.57;4.57;;;;;;;;;;5075999;28;20450;-80
2024/01/01 02:39:07;;;;;;;9.57;7.45;;;;;;;;;;5074192;28;20099;-79
2024/01/01 02:41:34;;;;;;;8.10;5.82;;;;;;;;;;5075624;28;20077;-80
2024/01/01 02:44:00;;;;;;;11.02;7.10;;;;;;;;;;5071153;28;20024;-80
2024/01/01 02:46:25;;;;;;;9.32;5.85;;;;;;;;;;5071718;28;20391;-80
2024/01/01 02:48:50;;;;;;;8.55;4.47;;;;;;;;;;5074336;28;20024;-80
2024/01/01 02:51:16;;;;;;;5.35;3.47;;;;;;;;;;5072781;28;20020;-80
2024/01/01 02:53:42;;;;;;;5.13;4.72;;;;;;;;;;5055705;28;20071;-80
2024/01/01 02:56:17;;;;;;;8.05;5.80;;;;;;;;;;5072315;28;20052;-80
2024/01/01 02:58:44;;;;;;;8.88;5.50;;;;;;;;;;5072426;28;20070;-81
2024/01/01 03:01:09;;;;;;;6.22;5.25;;;;;;;;;;5070963;28;20547;-80
2024/01/01 03:03:34;;;;;;;5.82;4.78;;;;;;;;;;5058467;28;20048;-80
2024/01/01 03:06:00;;;;;;;15.60;6.30;;;;;;;;;;5069035;28;20067;-80
2024/01/01 03:08:25;;;;;;;9.85;6.40;;;;;;;;;;5074038;28;20032;-81
2024/01/01 03:10:51;;;;;;;6.47;4.40;;;;;;;;;;5070216;28;20111;-79
2024/01/01 03:13:16;;;;;;;5.90;3.40;;;;;;;;;;5070220;28;20484;-81
2024/01/01 03:15:42;;;;;;;6.10;4.50;;;;;;;;;;5073857;28;20074;-81
2024/01/01 03:18:11;;;;;;;6.35;4.28;;;;;;;;;;5070866;28;20025;-80
2024/01/01 03:20:37;;;;;;;15.02;7.00;;;;;;;;;;5057560;28;20085;-81
2024/01/01 03:23:03;;;;;;;5.68;3.58;;;;;;;;;;5072731;28;20109;-81
2024/01/01 03:25:31;;;;;;;5.65;4.05;;;;;;;;;;5056226;28;20550;-81
2024/01/01 03:27:57;;;;;;;4.13;3.42;;;;;;;;;;5066296;28;20032;-81
2024/01/01 03:30:24;;;;;;;2.70;2.50;;;;;;;;;;5072163;28;20024;-81
2024/01/01 03:32:50;;;;;;;1.27;1.17;;;;;;;;;;5054724;28;20048;-80
2024/01/01 03:35:19;;;;;;;5.15;2.10;;;;;;;;;;5073945;28;20055;-81
2024/01/01 03:37:47;;;;;;;1.58;1.48;;;;;;;;;;5071595;28;20044;-80
2024/01/01 03:40:15;;;;;;;2.40;1.15;;;;;;;;;;5073517;28;20028;-81
2024/01/01 03:42:41;;;;;;;2.88;2.03;;;;;;;;;;5071446;28;20119;-80
2024/01/01 03:45:08;;;;;;;1.67;1.58;;;;;;;;;;5054908;28;20165;-81
2024/01/01 03:47:33;;;;;;;1.27;1.17;;;;;;;;;;5054135;28;20115;-79
2024/01/01 03:49:59;;;;;;;1.52;1.23;;;;;;;;;;5055459;28;20084;-80
2024/01/01 03:52:25;;;;;;;1.77;1.45;;;;;;;;;;5071122;28;20032;-80
2024/01/01 03:54:50;;;;;;;1.70;1.58;;;;;;;;;;5051970;28;20040;-79
2024/01/01 03:57:19;;;;;;;2.50;2.00;;;;;;;;;;5070236;28;20111;-82
2024/01/01 03:59:44;;;;;;;2.45;1.48;;;;;;;;;;5069681;28;20423;-79
2024/01/01 04:02:10;;;;;;;1.80;1.70;;;;;;;;;;5072254;28;20026;-80
2024/01/01 04:04:36;;;;;;;2.30;2.10;;;;;;;;;;5071746;28;20031;-81
2024/01/01 04:07:02;;;;;;;1.83;1.27;;;;;;;;;;5068586;28;20405;-80
2024/01/01 04:09:28;;;;;;;2.35;2.10;;;;;;;;;;5071523;28;20104;-82
2024/01/01 04:11:53;;;;;;;1.15;1.05;;;;;;;;;;5068875;28;20028;-80
2024/01/01 04:14:19;;;;;;;2.58;0.90;;;;;;;;;;5072068;28;20028;-81
2024/01/01 04:16:44;;;;;;;1.17;1.05;;;;;;;;;;5069575;28;20136;-81
2024/01/01 04:19:10;;;;;;;2.15;1.45;;;;;;;;;;5052735;28;20029;-81
2024/01/01 04:21:39;;;;;;;2.10;1.35;;;;;;;;;;5071603;28;20825;-81
2024/01/01 04:24:09;;;;;;;3.20;2.22;;;;;;;;;;5070710;28;20031;-81
2024/01/01 04:26:37;;;;;;;4.43;3.38;;;;;;;;;;5069218;28;20484;-81
2024/01/01 04:29:02;;;;;;;4.38;3.08;;;;;;;;;;5072471;28;20107;-81
2024/01/01 04:31:28;;;;;;;7.18;5.35;;;;;;;;;;5072956;28;20107;-81
2024/01/01 04:33:53;;;;;;;7.20;5.78;;;;;;;;;;5073211;28;20021;-81
2024/01/01 04:36:19;;;;;;;4.82;4.32;;;;;;;;;;5053706;28;20032;-81
2024/01/01 04:38:44;;;;;;;4.40;2.65;;;;;;;;;;5071972;28;20101;-82
2024/01/01 04:41:10;;;;;;;7.60;5.85;;;;;;;;;;5071561;28;20032;-81
2024/01/01 04:43:36;;;;;;;4.75;4.32;;;;;;;;;;5068726;28;20375;-81
2024/01/01 04:46:04;;;;;;;11.90;8.20;;;;;;;;;;5068691;28;20024;-80
2024/01/01 04:48:30;;;;;;;5.45;3.80;;;;;;;;;;5069765;28;20052;-80
2024/01/01 04:50:55;;;;;;;10.10;4.47;;;;;;;;;;5067412;28;20478;-79
2024/01/01 04:53:21;;;;;;;9.38;3.67;;;;;;;;;;5069360;28;20032;-80
2024/01/01 04:55:46;;;;;;;9.27;4.80;;;;;;;;;;5069294;28;20060;-79
2024/01/01 04:58:12;;;;;;;9.75;3.53;;;;;;;;;;5067257;28;20115;-80
2024/01/01 05:00:39;;;;;;;6.57;4.85;;;;;;;;;;5048265;28;20028;-80
2024/01/01 05:03:05;;;;;;;4.40;3.67;;;;;;;;;;5066462;28;20434;-80
2024/01/01 05:05:30;;;;;;;8.73;3.28;;;;;;;;;;5068115;28;20090;-80
2024/01/01 05:07:56;;;;;;;6.65;3.97;;;;;;;;;;5068578;28;20461;-80
2024/01/01 05:10:21;;;;;;;4.15;3.40;;;;;;;;;;5066745;28;20036;-80
2024/01/01 05:12:47;;;;;;;7.95;4.75;;;;;;;;;;5069163;28;20838;-80
2024/01/01 05:15:15;;;;;;;7.03;4.40;;;;;;;;;;5069061;28;20032;-80
2024/01/01 05:17:40;;;;;;;15.00;7.22;;;;;;;;;;5071967;28;20036;-80
2024/01/01 05:20:06;;;;;;;7.88;6.03;;;;;;;;;;5055637;28;20082;-81
2024/01/01 05:22:32;;;;;;;8.50;4.28;;;;;;;;;;5073839;28;20021;-81
2024/01/01 05:24:57;;;;;;;7.63;5.72;;;;;;;;;;5071998;28;20032;-80
2024/01/01 05:27:23;;;;;;;5.55;3.50;;;;;;;;;;5073303;28;20084;-79
2024/01/01 05:29:48;;;;;;;5.65;4.63;;;;;;;;;;5071854;28;20058;-81
2024/01/01 05:32:14;;;;;;;3.13;2.75;;;;;;;;;;5072856;28;20024;-81
2024/01/01 05:34:41;;;;;;;1.90;1.67;;;;;;;;;;5072647;28;20074;-81
2024/01/01 05:37:12;;;;;;;2.45;1.73;;;;;;;;;;5055267;28;20115;-83
2024/01/01 05:39:38;;;;;;;1.63;1.38;;;;;;;;;;5071866;28;20475;-80
2024/01/01 05:42:04;;;;;;;3.88;2.60;;;;;;;;;;5072762;28;20067;-80
2024/01/01 05:44:30;;;;;;;2.08;1.77;;;;;;;;;;5070402;28;20107;-83
2024/01/01 05:46:55;;;;;;;1.92;1.52;;;;;;;;;;5072659;28;20056;-82
2024/01/01 05:49:23;;;;;;;1.15;1.05;;;;;;;;;;5070736;28;20020;-81
2024/01/01 05:51:48;;;;;;;3.25;1.85;;;;;;;;;;5072273;28;20112;-82
2024/01/01 05:54:16;;;;;;;3.15;2.40;;;;;;;;;;5071773;28;20127;-81
2024/01/01 05:56:44;;;;;;;1.88;1.23;;;;;;;;;;5074341;28;20033;-81
2024/01/01 05:59:09;;;;;;;2.10;1.85;;;;;;;;;;5071001;28;20028;-82
2024/01/01 06:01:35;;;;;;;3.78;2.35;;;;;;;;;;5072135;28;20346;-81
2024/01/01 06:04:08;;;;;;;3.53;2.28;;;;;;;;;;5072178;28;20049;-80
2024/01/01 06:06:35;;;;;;;3.08;2.05;;;;;;;;;;5070451;28;20147;-82
2024/01/01 06:09:01;;;;;;;2.50;2.30;;;;;;;;;;5071302;28;20035;-80
2024/01/01 06:11:26;;;;;;;3.92;2.85;;;;;;;;;;5068975;28;20031;-79
2024/01/01 06:13:52;;;;;;;1.60;1.20;;;;;;;;;;5052237;28;20040;-80
2024/01/01 06:16:18;;;;;;;3.90;2.88;;;;;;;;;;5051101;28;20079;-80
2024/01/01 06:18:44;;;;;;;4.35;3.15;;;;;;;;;;5068544;28;20074;-82
2024/01/01 06:21:09;;;;;;;1.92;1.40;;;;;;;;;;5051577;28;20439;-81
2024/01/01 06:23:35;;;;;;;2.53;2.13;;;;;;;;;;5068917;28;20094;-81
2024/01/01 06:26:01;;;;;;;8.82;5.03;;;;;;;;;;5069419;28;20024;-82
2024/01/01 06:28:26;;;;;;;11.77;3.63;;;;;;;;;;5065197;28;20033;-82
2024/01/01 06:30:52;;;;;;;2.70;2.45;;;;;;;;;;5069597;28;20492;-81
2024/01/01 06:33:18;;;;;;;4.97;2.33;;;;;;;;;;5069979;28;20020;-81
2024/01/01 06:35:43;;;;;;;3.78;3.03;;;;;;;;;;5068481;28;20025;-80
2024/01/01 06:38:08;;;;;;;2.17;1.60;;;;;;;;;;5068914;28;20086;-79
2024/01/01 06:40:34;;;;;;;4.25;1.98;;;;;;;;;;5068967;28;20070;-79
2024/01/01 06:42:59;;;;;;;7.65;1.92;;;;;;;;;;5069736;28;20407;-78
2024/01/01 06:45:24;;;;;;;3.83;2.78;;;;;;;;;;5068279;28;20028;-79
2024/01/01 06:47:50;;;;;;;3.60;2.55;;;;;;;;;;5069753;28;20032;-79
2024/01/01 06:50:15;;;;;;;2.85;1.50;;;;;;;;;;5069212;28;20029;-79
2024/01/01 06:52:41;;;;;;;3.67;2.50;;;;;;;;;;5051542;28;20420;-80
2024/01/01 06:55:06;;;;;;;3.67;2.50;;;;;;;;;;5069874;28;20499;-82
2024/01/01 06:57:32;;;;;;;2.95;1.70;;;;;;;;;;5070196;28;20032;-82
2024/01/01 06:59:58;;;;;;;2.15;1.60;;;;;;;;;;5069151;28;20074;-82
2024/01/01 07:02:25;;;;;;;4.13;2.80;;;;;;;;;;5069281;28;20043;-82
2024/01/01 07:04:51;;;;;;;5.18;3.72;;;;;;;;;;5048122;28;20043;-82
2024/01/01 07:07:17;;;;;;;5.13;3.10;;;;;;;;;;5069484;28;20064;-82
2024/01/01 07:09:42;;;;;;;2.15;2.05;;;;;;;;;;5071104;28;20062;-82
2024/01/01 07:12:23;;;;;;;2.85;2.05;;;;;;;;;;5068248;28;20115;-81
2024/01/01 07:14:49;;;;;;;2.05;1.85;;;;;;;;;;5068678;28;20058;-86
2024/01/01 07:17:15;;;;;;;2.67;2.25;;;;;;;;;;5069195;28;20055;-80
2024/01/01 07:19:40;;;;;;;4.95;3.22;;;;;;;;;;5069070;28;20752;-80
2024/01/01 07:22:06;;;;;;;12.23;5.32;;;;;;;;;;5066447;28;20062;-80
2024/01/01 07:24:31;;;;;;;4.85;3.58;;;;;;;;;;5066673;28;20025;-80
2024/01/01 07:26:57;;;;;;;7.65;5.00;;;;;;;;;;5069110;28;20054;-79
2024/01/01 07:29:23;;;;;;;5.38;2.92;;;;;;;;;;5066862;28;20039;-80
2024/01/01 07:32:07;;;;;;;6.88;4.78;;;;;;;;;;5068570;28;20052;-80
2024/01/01 07:34:33;;;;;;;5.63;3.70;;;;;;;;;;5068786;28;20058;-81
2024/01/01 07:36:58;;;;;;;4.85;3.92;;;;;;;;;;5070389;28;20033;-81
2024/01/01 07:39:24;;;;;;;7.80;5.60;;;;;;;;;;5069192;28;20028;-79
2024/01/01 07:41:53;;;;;;;8.20;6.20;;;;;;;;;;5069935;28;20024;-82
2024/01/01 07:44:18;;;;;;;21.20;9.25;;;;;;;;;;5069496;28;20472;-82
2024/01/01 07:46:47;;;;;;;10.90;8.43;;;;;;;;;;5069682;28;20056;-82
2024/01/01 07:49:13;;;;;;;9.05;6.78;;;;;;;;;;5053565;28;20416;-81
2024/01/01 07:51:38;;;;;;;12.13;7.90;;;;;;;;;;5071353;28;20060;-82
2024/01/01 07:54:04;;;;;;;23.05;7.95;;;;;;;;;;5067155;28;20043;-82
2024/01/01 07:56:29;;;;;;;17.95;10.10;;;;;;;;;;5069069;28;20032;-82
2024/01/01 07:58:57;;;;;;;12.25;5.95;;;;;;;;;;5069694;28;20032;-83
2024/01/01 08:01:24;;;;;;;12.77;7.70;;;;;;;;;;5069555;28;20024;-81
2024/01/01 08:03:49;;;;;;;14.77;7.57;;;;;;;;;;5069016;28;20047;-82
2024/01/01 08:06:30;;;;;;;13.50;6.90;;;;;;;;;;5069910;28;20384;-81
2024/01/01 08:08:55;;;;;;;13.32;6.70;;;;;;;;;;5055468;28;20056;-79
2024/01/01 08:11:21;;;;;;;21.75;8.55;;;;;;;;;;5070876;28;20079;-79
2024/01/01 08:13:46;;;;;;;8.50;4.85;;;;;;;;;;5070791;28;20441;-81
2024/01/01 08:16:12;;;;;;;7.50;5.57;;;;;;;;;;5069284;28;20107;-80
2024/01/01 08:18:38;;;;;;;15.98;7.65;;;;;;;;;;5068953;28;20031;-80
2024/01/01 08:21:03;;;;;;;16.13;6.45;;;;;;;;;;5068047;28;20103;-79
2024/01/01 08:23:29;;;;;;;20.02;8.65;;;;;;;;;;5068736;28;20029;-79
2024/01/01 08:25:54;;;;;;;8.07;7.20;;;;;;;;;;5069712;28;20461;-79
2024/01/01 08:28:20;;;;;;;7.95;4.85;;;;;;;;;;5067761;28;20054;-81
2024/01/01 08:30:45;;;;;;;8.60;3.70;;;;;;;;;;5070326;28;20025;-80
2024/01/01 08:33:13;;;;;;;8.68;4.82;;;;;;;;;;5072266;28;20111;-80
2024/01/01 08:35:38;;;;;;;4.30;3.90;;;;;;;;;;5073661;28;20036;-80
2024/01/01 08:38:04;;;;;;;8.52;5.15;;;;;;;;;;5068966;28;20020;-80
2024/01/01 08:40:29;;;;;;;7.88;4.93;;;;;;;;;;5069262;28;20036;-80
2024/01/01 08:42:54;;;;;;;8.27;4.97;;;;;;;;;;5053570;28;20048;-79
2024/01/01 08:45:20;;;;;;;14.52;5.05;;;;;;;;;;5068669;28;20024;-80
2024/01/01 08:47:46;;;;;;;8.57;4.57;;;;;;;;;;5067504;28;20028;-80
2024/01/01 08:50:12;;;;;;;6.60;4.88;;;;;;;;;;5068558;28;20037;-80
2024/01/01 08:52:38;;;;;;;10.00;5.05;;;;;;;;;;5068133;28;20032;-80
2024/01/01 08:55:04;;;;;;;8.60;4.35;;;;;;;;;;5070981;28;20468;-79
2024/01/01 08:57:30;;;;;;;10.48;5.72;;;;;;;;;;5074769;28;20056;-80
2024/01/01 08:59:55;;;;;;;11.23;6.85;;;;;;;;;;5054689;28;20138;-80
2024/01/01 09:02:20;;;;;;;11.63;6.43;;;;;;;;;;5070995;28;20369;-80
2024/01/01 09:04:46;;;;;;;11.80;5.18;;;;;;;;;;5073406;28;20037;-79
2024/01/01 09:07:11;;;;;;;6.25;3.97;;;;;;;;;;5071908;28;20462;-80
2024/01/01 09:09:37;;;;;;;7.85;4.68;;;;;;;;;;5073234;28;20030;-80
2024/01/01 09:12:02;;;;;;;8.02;4.13;;;;;;;;;;5071455;28;20665;-81
2024/01/01 09:14:28;;;;;;;5.50;4.38;;;;;;;;;;5071515;28;20028;-81
2024/01/01 09:16:53;;;;;;;15.50;7.00;;;;;;;;;;5073633;28;20060;-81
2024/01/01 09:19:19;;;;;;;7.65;5.28;;;;;;;;;;5054799;28;20028;-81
2024/01/01 09:21:44;;;;;;;13.23;7.03;;;;;;;;;;5071729;28;20802;-81
2024/01/01 09:24:12;;;;;;;12.32;5.82;;;;;;;;;;5053938;28;20035;-81
2024/01/01 09:26:44;;;;;;;12.80;6.90;;;;;;;;;;5071268;28;20032;-82
2024/01/01 09:29:12;;;;;;;12.52;5.53;;;;;;;;;;5072367;28;20036;-81
2024/01/01 09:31:37;;;;;;;14.45;8.95;;;;;;;;;;5068902;28;20021;-81
2024/01/01 09:34:06;;;;;;;15.50;7.85;;;;;;;;;;5069649;28;20086;-81
2024/01/01 09:36:31;;;;;;;11.50;7.20;;;;;;;;;;5071320;28;20131;-82
2024/01/01 09:38:58;;;;;;;14.88;8.38;;;;;;;;;;5071079;28;20115;-82
2024/01/01 09:41:26;;;;;;;12.07;6.28;;;;;;;;;;5071009;28;20028;-81
2024/01/01 09:43:55;;;;;;;20.23;8.40;;;;;;;;;;5055307;28;20040;-81
2024/01/01 09:46:33;;;;;;;12.88;5.78;;;;;;;;;;5070702;28;20036;-81
2024/01/01 09:48:59;;;;;;;17.42;7.70;;;;;;;;;;5055179;28;20029;-82
2024/01/01 09:51:26;;;;;;;7.90;5.43;;;;;;;;;;5070593;28;20033;-80
2024/01/01 09:53:52;;;;;;;14.15;9.52;;;;;;;;;;5071884;28;20028;-78
2024/01/01 09:56:18;;;;;;;15.95;7.43;;;;;;;;;;5073257;28;20028;-80
2024/01/01 09:58:44;;;;;;;8.02;5.68;;;;;;;;;;5071356;28;20369;-80
2024/01/01 10:01:19;;;;;;;17.25;6.95;;;;;;;;;;5073726;28;20035;-79
2024/01/01 10:04:00;;;;;;;7.93;5.97;;;;;;;;;;5052853;28;20032;-79
2024/01/01 10:06:25;;;;;;;17.27;6.68;;;;;;;;;;5071671;28;20028;-79
2024/01/01 10:08:51;;;;;;;20.40;11.75;;;;;;;;;;5069570;28;20173;-81
2024/01/01 10:11:20;;;;;;;18.63;9.48;;;;;;;;;;5070130;28;20029;-80
2024/01/01 10:13:49;;;;;;;28.58;10.38;;;;;;;;;;5068987;28;20594;-80
2024/01/01 10:16:25;;;;;;;22.17;7.95;;;;;;;;;;5071333;28;20055;-81
2024/01/01 10:19:00;;;;;;;13.75;6.30;;;;;;;;;;5069796;28;20031;-80
2024/01/01 10:21:30;;;;;;;13.68;8.60;;;;;;;;;;5072624;28;20097;-82
2024/01/01 10:23:57;;;;;;;20.02;9.52;;;;;;;;;;5069416;28;20061;-81
2024/01/01 10:26:24;;;;;;;21.02;8.57;;;;;;;;;;5070824;28;20028;-81
2024/01/01 10:28:49;;;;;;;19.33;8.45;;;;;;;;;;5072196;28;20040;-81
2024/01/01 10:31:18;;;;;;;24.80;8.35;;;;;;;;;;5070034;28;20028;-80
2024/01/01 10:33:48;;;;;;;14.40;10.18;;;;;;;;;;5052771;28;20520;-81
2024/01/01 10:36:16;;;;;;;13.93;7.82;;;;;;;;;;5070313;28;20566;-81
2024/01/01 10:38:43;;;;;;;19.92;8.00;;;;;;;;;;5070774;28;20032;-82
2024/01/01 10:41:10;;;;;;;12.43;6.95;;;;;;;;;;5073899;28;20118;-81
2024/01/01 10:43:36;;;;;;;15.13;6.70;;;;;;;;;;5074506;28;20487;-81
2024/01/01 10:46:05;;;;;;;13.63;9.32;;;;;;;;;;5075747;28;20099;-80
2024/01/01 10:48:41;;;;;;;11.60;7.50;;;;;;;;;;5069993;28;20984;-81
2024/01/01 10:51:28;;;;;;;8.77;5.70;;;;;;;;;;5070521;28;20150;-81
2024/01/01 10:54:21;;;;;;;14.60;7.90;;;;;;;;;;5054093;28;20032;-82
2024/01/01 10:56:56;;;;;;;12.82;8.02;;;;;;;;;;5072074;28;20054;-80
2024/01/01 10:59:30;;;;;;;17.27;8.15;;;;;;;;;;5070132;28;20024;-81
2024/01/01 11:01:56;;;;;;;21.80;8.68;;;;;;;;;;5072271;28;20524;-82
2024/01/01 11:04:28;;;;;;;15.57;8.00;;;;;;;;;;5071626;28;20416;-83
2024/01/01 11:06:54;;;;;;;17.33;7.38;;;;;;;;;;5072413;28;20055;-81
2024/01/01 11:09:19;;;;;;;14.05;7.05;;;;;;;;;;5053172;28;20672;-82
2024/01/01 11:11:52;;;;;;;12.10;5.53;;;;;;;;;;5070709;28;20035;-81
2024/01/01 11:14:28;;;;;;;8.20;5.05;;;;;;;;;;5063916;28;20031;-82
2024/01/01 11:16:55;;;;;;;15.95;7.65;;;;;;;;;;5055156;28;20044;-82
2024/01/01 11:19:42;;;;;;;19.27;8.15;;;;;;;;;;5052980;28;20080;-82
2024/01/01 11:22:20;;;;;;;16.70;6.22;;;;;;;;;;5070314;28;20058;-81
2024/01/01 11:24:47;;;;;;;10.02;5.47;;;;;;;;;;5070787;28;20389;-81
2024/01/01 11:27:23;;;;;;;8.50;5.82;;;;;;;;;;5071925;28;20024;-82
2024/01/01 11:29:49;;;;;;;11.88;5.45;;;;;;;;;;5071514;28;20334;-80
2024/01/01 11:32:17;;;;;;;11.98;5.28;;;;;;;;;;5070783;28;20115;-81
2024/01/01 11:34:43;;;;;;;13.13;6.13;;;;;;;;;;5070484;28;20029;-80
2024/01/01 11:37:08;;;;;;;11.10;6.40;;;;;;;;;;5070305;28;20025;-81
2024/01/01 11:39:34;;;;;;;11.52;4.65;;;;;;;;;;5069766;28;20468;-82
2024/01/01 11:41:59;;;;;;;14.55;8.20;;;;;;;;;;5069959;28;20047;-82
2024/01/01 11:44:25;;;;;;;26.45;6.65;;;;;;;;;;5072331;28;20032;-81
2024/01/01 11:46:54;;;;;;;13.20;6.13;;;;;;;;;;5068969;28;20043;-82
2024/01/01 11:49:19;;;;;;;8.52;4.65;;;;;;;;;;5054815;28;20715;-83
2024/01/01 11:51:53;;;;;;;5.32;4.05;;;;;;;;;;5053868;28;20036;-81
2024/01/01 11:54:19;;;;;;;7.40;5.45;;;;;;;;;;5067084;28;22005;-81
2024/01/01 11:56:49;;;;;;;8.80;4.60;;;;;;;;;;5070693;28;20044;-84
2024/01/01 11:59:16;;;;;;;9.60;5.10;;;;;;;;;;5069179;28;20020;-81
2024/01/01 12:01:43;;;;;;;4.80;3.75;;;;;;;;;;5069578;28;20070;-80
2024/01/01 12:04:10;;;;;;;9.18;4.13;;;;;;;;;;5052916;28;20743;-81
2024/01/01 12:06:38;;;;;;;11.38;4.18;;;;;;;;;;5050895;28;20168;-82
2024/01/01 12:09:09;;;;;;;16.08;6.72;;;;;;;;;;5066143;28;20040;-79
2024/01/01 12:11:40;;;;;;;8.55;5.25;;;;;;;;;;5068921;28;20032;-81
2024/01/01 12:14:06;;;;;;;12.50;4.95;;;;;;;;;;5066628;28;20024;-81
2024/01/01 12:16:33;;;;;;;10.35;5.15;;;;;;;;;;5049535;28;20049;-81
2024/01/01 12:19:01;;;;;;;8.23;4.47;;;;;;;;;;5069270;28;20043;-80
2024/01/01 12:21:45;;;;;;;4.20;3.67;;;;;;;;;;5050649;28;20130;-80
2024/01/01 12:24:20;;;;;;;7.47;4.45;;;;;;;;;;5049716;28;20119;-82
2024/01/01 12:26:48;;;;;;;11.43;4.82;;;;;;;;;;5066379;28;20119;-81
2024/01/01 12:29:14;;;;;;;13.55;3.90;;;;;;;;;;5068476;28;20032;-81
2024/01/01 12:31:42;;;;;;;9.38;4.75;;;;;;;;;;5071136;28;20085;-83
2024/01/01 12:34:12;;;;;;;9.50;5.28;;;;;;;;;;5072109;28;20024;-81
2024/01/01 12:36:45;;;;;;;7.68;4.45;;;;;;;;;;5068903;28;20021;-84
2024/01/01 12:39:11;;;;;;;7.45;5.18;;;;;;;;;;5068853;28;20028;-81
2024/01/01 12:41:40;;;;;;;12.57;7.93;;;;;;;;;;5069036;28;20024;-82
2024/01/01 12:44:08;;;;;;;13.18;6.50;;;;;;;;;;5051608;28;20127;-83
2024/01/01 12:46:46;;;;;;;22.58;9.88;;;;;;;;;;5067650;28;20024;-83
2024/01/01 12:49:11;;;;;;;11.75;6.32;;;;;;;;;;5068582;28;20078;-83
2024/01/01 12:51:37;;;;;;;7.70;4.43;;;;;;;;;;5072916;28;20036;-85
2024/01/01 12:54:05;;;;;;;13.68;5.32;;;;;;;;;;5070415;28;20024;-81
2024/01/01 12:56:41;;;;;;;9.35;5.40;;;;;;;;;;5050561;28;20095;-82
2024/01/01 12:59:12;;;;;;;10.05;5.63;;;;;;;;;;5067928;28;20043;-83
2024/01/01 13:01:40;;;;;;;10.90;6.47;;;;;;;;;;5070629;28;20079;-82
2024/01/01 13:04:11;;;;;;;6.70;4.63;;;;;;;;;;5070869;28;20056;-82
2024/01/01 13:06:37;;;;;;;8.10;5.18;;;;;;;;;;5071080;28;20051;-81
2024/01/01 13:09:05;;;;;;;11.18;5.68;;;;;;;;;;5068385;28;20021;-83
2024/01/01 13:11:46;;;;;;;10.75;7.05;;;;;;;;;;5070276;28;20024;-83
2024/01/01 13:14:14;;;;;;;10.82;5.00;;;;;;;;;;5051191;28;20040;-83
2024/01/01 13:16:40;;;;;;;13.98;7.22;;;;;;;;;;5050400;28;20044;-82
2024/01/01 13:19:17;;;;;;;9.93;6.60;;;;;;;;;;5047323;28;20418;-84
2024/01/01 13:21:43;;;;;;;8.30;4.95;;;;;;;;;;5067835;28;20029;-83
2024/01/01 13:24:24;;;;;;;8.05;4.57;;;;;;;;;;5069577;28;20051;-83
2024/01/01 13:26:49;;;;;;;8.63;5.50;;;;;;;;;;5067801;28;20415;-83
2024/01/01 13:29:14;;;;;;;11.65;5.88;;;;;;;;;;5067080;28;20036;-83
2024/01/01 13:31:40;;;;;;;13.38;5.88;;;;;;;;;;5049353;28;20067;-81
2024/01/01 13:34:08;;;;;;;18.33;8.77;;;;;;;;;;5068919;28;20036;-80
2024/01/01 13:36:34;;;;;;;5.85;3.50;;;;;;;;;;5066046;28;20038;-81
2024/01/01 13:38:59;;;;;;;8.68;5.00;;;;;;;;;;5050169;28;20321;-80
2024/01/01 13:41:24;;;;;;;11.43;6.72;;;;;;;;;;5070484;28;20040;-80
2024/01/01 13:43:52;;;;;;;9.18;5.15;;;;;;;;;;5053751;28;20385;-82
2024/01/01 13:46:17;;;;;;;10.43;7.05;;;;;;;;;;5071593;28;20025;-82
2024/01/01 13:48:43;;;;;;;10.57;6.25;;;;;;;;;;5072331;28;20031;-82
2024/01/01 13:51:10;;;;;;;12.15;5.63;;;;;;;;;;5071189;28;20427;-82
2024/01/01 13:53:36;;;;;;;12.98;7.38;;;;;;;;;;5069849;28;20078;-83
2024/01/01 13:56:05;;;;;;;8.25;3.47;;;;;;;;;;5052940;28;20055;-83
2024/01/01 13:58:30;;;;;;;16.02;8.05;;;;;;;;;;5052767;28;20128;-82
2024/01/01 14:00:56;;;;;;;10.68;4.72;;;;;;;;;;5069696;28;20127;-80
2024/01/01 14:03:22;;;;;;;11.43;6.00;;;;;;;;;;5068873;28;20502;-81
2024/01/01 14:05:48;;;;;;;7.68;5.80;;;;;;;;;;5067226;28;20074;-81
2024/01/01 14:08:13;;;;;;;9.32;4.70;;;;;;;;;;5069701;28;20479;-78
2024/01/01 14:10:38;;;;;;;15.25;6.95;;;;;;;;;;5073806;28;20020;-85
2024/01/01 14:13:04;;;;;;;8.88;5.15;;;;;;;;;;5069542;28;20480;-82
2024/01/01 14:15:29;;;;;;;4.38;2.60;;;;;;;;;;5069740;28;20060;-80
2024/01/01 14:17:55;;;;;;;6.93;4.30;;;;;;;;;;5051719;28;20123;-80
2024/01/01 14:20:21;;;;;;;5.60;3.65;;;;;;;;;;5053482;28;20123;-80
2024/01/01 14:22:47;;;;;;;9.60;3.63;;;;;;;;;;5071132;28;20745;-80
2024/01/01 14:25:13;;;;;;;10.07;6.38;;;;;;;;;;5054188;28;20029;-81
2024/01/01 14:27:42;;;;;;;4.30;3.10;;;;;;;;;;5073258;28;20039;-80
2024/01/01 14:30:09;;;;;;;4.85;3.25;;;;;;;;;;5073032;28;20127;-80
2024/01/01 14:32:34;;;;;;;3.85;3.15;;;;;;;;;;5072368;28;20500;-80
2024/01/01 14:35:04;;;;;;;3.97;2.90;;;;;;;;;;5072922;28;20108;-80
2024/01/01 14:37:29;;;;;;;6.55;3.83;;;;;;;;;;5073233;28;20088;-80